Unser Flugplatzteam

Segelflugzeugschlepp am Flugplatz Konstanz

Unsere freundlichen Mitarbeiter stehen Ihnen gerne mit Rat und Tat zur Seite:

Robert Leitner

Flugleiter, Landesbeauftragter für Luftaufsicht am Verkehrlandeplatz Konstanz

Minky Schweizer

Flugleiterin

Live am Platz

Die Bilder unserer Webcams werden alle 5 Minuten aktualisiert.

Sonnenaufgang:

05:20 UTC / 07:20 Lokal

Sonnenuntergang:

17:06 UTC / 19:06 Lokal

METAR (30.09.2020 19:50 UTC):

EDNY 301750Z 04002KT CAVOK 14/12 Q1012
VFR

TAF (30.09.2020 19:00 UTC):

TAF EDNY 301700Z 3018/0118 VRB03KT CAVOK BECMG 3022/0101 3000 BCFG BECMG 0101/0103 2000 BKN005 PROB30 TEMPO 0103/0107 0600 FG BKN003 BECMG 0107/0110 9999 SCT012 TEMPO 0112/0116 23005KT

Alle Angaben unverbindlich und ohne Gewähr. Zeiten genähert.

Für den Verkehrslandeplatz Konstanz werden keine offiziellen Wetterinformationen ausgegeben. Daher werden zur Orientierung Daten des nahegelegenen Flughafens Friedrichshafen dargestellt.